M I D A S
Marine Information and Data Acquisition System
Tripno 2152 of the Zeeleeuw from 2011-07-27 05:25:13 to 2011-07-27 15:18:30
Back to CruiseResearch ActivitiesStationsMapUnderway DataData graphs

EquipmentUnitsComment
TimeDGPSUTC
LatitudeDGPSDM.mWGS84
LongitudeDGPSDM.mWGS84
HeadingGyrodeg 
SOGDGPSknotsSpeed over ground
COGDGPSdegCourse over ground
DepthEcho soundermeters200 kHz
Missing or incorrect values are displayed as -999
Navigation data collected by the RV Zeeleeuw from 2011-07-27 05:26:57 to 2011-07-27 16:27:51
Time Latitude Longitude Heading SOG COG Depth
2011-07-27 05:28:06 51°13.652 2°55.92 111 4.4 289 -999
2011-07-27 05:29:06 51°13.688 2°55.811 129.8 4.7 306 -999
2011-07-27 05:30:06 51°13.743 2°55.718 140.2 5 318 -999
2011-07-27 05:31:06 51°13.815 2°55.644 159.6 5.2 337 -999
2011-07-27 05:32:07 51°13.903 2°55.624 186.1 4.9 3 -999
2011-07-27 05:33:06 51°13.963 2°55.649 203.6 1.7 22 -999
2011-07-27 05:34:06 51°13.961 2°55.623 261.6 3.1 270 11.6
2011-07-27 05:35:05 51°14.005 2°55.534 326.7 6.8 328 11.3
2011-07-27 05:36:05 51°14.133 2°55.416 333.4 9.9 331 11.4
2011-07-27 05:37:03 51°14.279 2°55.282 331.1 10.6 329 11.2
2011-07-27 05:38:03 51°14.436 2°55.128 329 11.5 325 11.2
2011-07-27 05:39:03 51°14.592 2°54.936 325.9 12.2 320 11.9
2011-07-27 05:40:03 51°14.754 2°54.737 328.5 12.3 323 11.5
2011-07-27 05:41:03 51°14.918 2°54.544 328 12.2 323 11.9
2011-07-27 05:42:02 51°15.074 2°54.346 324.2 12.2 318 12.1
2011-07-27 05:43:03 51°15.233 2°54.135 327.4 12.2 322 12.1
2011-07-27 05:44:02 51°15.39 2°53.94 325.6 12.3 319 12.4
2011-07-27 05:45:03 51°15.549 2°53.731 327.8 12.2 323 12.2
2011-07-27 05:46:03 51°15.715 2°53.547 329.9 12.1 326 12.8
2011-07-27 05:47:03 51°15.896 2°53.416 345.8 12 339 12.9
2011-07-27 05:48:03 51°16.074 2°53.274 336.6 12.1 330 12
2011-07-27 05:49:02 51°16.252 2°53.141 340.9 11.9 336 12.3
2011-07-27 05:50:02 51°16.432 2°53.012 339.6 11.9 334 12.2
2011-07-27 05:51:02 51°16.606 2°52.857 335.7 11.9 331 11.7
2011-07-27 05:52:03 51°16.785 2°52.715 342.4 11.7 338 10.1
2011-07-27 05:53:02 51°16.961 2°52.592 340 11.7 334 10.3
2011-07-27 05:54:02 51°17.131 2°52.445 337.1 11.6 333 10.6
2011-07-27 05:55:02 51°17.309 2°52.319 341.1 11.6 334 10.8
2011-07-27 05:56:03 51°17.488 2°52.177 337.1 11.9 332 11.9
2011-07-27 05:57:02 51°17.661 2°52.045 341.9 11.7 336 11.4
2011-07-27 05:58:02 51°17.832 2°51.896 331.6 11.8 325 10.8
2011-07-27 05:59:03 51°17.973 2°51.67 314.1 12 308 11.1
2011-07-27 06:00:03 51°18.111 2°51.435 319.9 12.2 313 11.9
2011-07-27 06:01:02 51°18.256 2°51.218 324.8 12.2 319 13.2
2011-07-27 06:02:02 51°18.405 2°50.999 321 12.2 315 14.3
2011-07-27 06:03:03 51°18.55 2°50.765 321.6 12.1 316 14.8
2011-07-27 06:04:03 51°18.698 2°50.548 323.5 12.1 318 14.9
2011-07-27 06:05:02 51°18.84 2°50.325 320.2 12.2 313 14.7
2011-07-27 06:06:03 51°18.986 2°50.097 323.6 12 318 13.3
2011-07-27 06:07:03 51°19.137 2°49.886 323.7 12 317 11.4
2011-07-27 06:08:03 51°19.273 2°49.645 316.4 12.2 311 12.6
2011-07-27 06:09:02 51°19.403 2°49.407 317.8 12.1 313 14.7
2011-07-27 06:10:03 51°19.543 2°49.162 318.5 12.4 311 16.6
2011-07-27 06:11:03 51°19.678 2°48.914 319 12.3 311 18.5
2011-07-27 06:12:02 51°19.811 2°48.665 317.7 12.4 311 21.4
2011-07-27 06:13:02 51°19.947 2°48.417 319 12.4 312 22.7
2011-07-27 06:14:03 51°20.09 2°48.172 319.4 12.3 313 22.8
2011-07-27 06:15:01 51°20.216 2°47.932 315.8 12.2 309 22.4
2011-07-27 06:16:02 51°20.352 2°47.682 320.6 12.3 314 21
2011-07-27 06:17:03 51°20.487 2°47.43 317.2 12.4 309 18.6
2011-07-27 06:18:02 51°20.615 2°47.18 317.6 12.3 311 17.6
2011-07-27 06:19:03 51°20.757 2°46.934 320.3 12.3 313 20.8
2011-07-27 06:20:03 51°20.888 2°46.676 312.5 12.7 305 23.8
2011-07-27 06:21:02 51°21.001 2°46.4 311.9 12.5 305 23.3
2011-07-27 06:22:02 51°21.126 2°46.135 314.8 12.4 309 25.1
2011-07-27 06:23:03 51°21.272 2°45.898 321.9 12.2 314 26.7
2011-07-27 06:24:03 51°21.421 2°45.676 326 12.1 321 25.9
2011-07-27 06:25:02 51°21.572 2°45.47 325.3 12.2 319 25.2
2011-07-27 06:26:03 51°21.725 2°45.251 322.2 12.1 315 23.5
2011-07-27 06:27:03 51°21.872 2°45.03 324.1 12.1 318 23.1
2011-07-27 06:28:03 51°22.026 2°44.823 326 12.1 320 23.7
2011-07-27 06:29:02 51°22.17 2°44.608 321.6 12.1 315 24.6
2011-07-27 06:30:03 51°22.314 2°44.377 322.4 12 317 26.1
2011-07-27 06:31:01 51°22.453 2°44.159 321.4 12.2 316 26.7
2011-07-27 06:32:03 51°22.599 2°43.922 322.9 11.7 316 25.8
2011-07-27 06:33:03 51°22.716 2°43.712 308 10.1 299 27
2011-07-27 06:34:03 51°22.742 2°43.478 276.4 7.3 269 26.4
2011-07-27 06:35:03 51°22.74 2°43.339 286 2.6 252 27.8
2011-07-27 06:36:05 51°22.718 2°43.339 276.3 1.4 157 -999
2011-07-27 06:37:05 51°22.699 2°43.352 258.4 1.1 158 26.8
2011-07-27 06:38:04 51°22.685 2°43.366 242.6 1 157 27.3
2011-07-27 06:39:06 51°22.668 2°43.367 234.4 1.3 201 27.7
2011-07-27 06:40:04 51°22.643 2°43.329 259.7 2.8 241 23.6
2011-07-27 06:41:03 51°22.653 2°43.248 326.7 3.3 316 25.7
2011-07-27 06:42:03 51°22.69 2°43.245 33 2.4 38 24.7
2011-07-27 06:43:02 51°22.723 2°43.289 25.4 1.9 36 25.2
2011-07-27 06:44:03 51°22.727 2°43.3 32.6 0.5 125 24
2011-07-27 06:45:03 51°22.722 2°43.315 41.2 0.9 96 25.1
2011-07-27 06:46:03 51°22.72 2°43.336 43.9 0.9 144 27.7
2011-07-27 06:47:02 51°22.71 2°43.351 52.8 1 122 24.7
2011-07-27 06:48:02 51°22.699 2°43.365 52.4 0.8 148 27.4
2011-07-27 06:49:03 51°22.685 2°43.373 55.2 1 166 27.9
2011-07-27 06:50:02 51°22.668 2°43.376 60.8 1.2 178 28.1
2011-07-27 06:51:03 51°22.653 2°43.387 57.3 1.1 93 27.9
2011-07-27 06:52:02 51°22.668 2°43.415 7.4 1.9 9 28.1
2011-07-27 06:53:03 51°22.703 2°43.393 336.8 2.4 324 27.7
2011-07-27 06:54:02 51°22.73 2°43.357 330.3 1.7 307 27.1
2011-07-27 06:55:05 51°22.719 2°43.347 301.5 1 187 -999
2011-07-27 06:56:06 51°22.699 2°43.347 278.8 1.2 180 26
2011-07-27 06:57:05 51°22.681 2°43.348 262.6 1.1 176 26
2011-07-27 06:58:02 51°22.664 2°43.35 246.9 1 173 24.5
2011-07-27 06:59:02 51°22.644 2°43.349 239.6 1.4 197 25.1
2011-07-27 07:00:03 51°22.623 2°43.314 269.4 2.5 250 26.9
2011-07-27 07:01:02 51°22.63 2°43.253 323.2 2.2 307 26.3
2011-07-27 07:02:02 51°22.647 2°43.234 0.9 0.3 345 26.4
2011-07-27 07:03:02 51°22.645 2°43.24 23.2 0.5 151 26.3
2011-07-27 07:04:02 51°22.634 2°43.248 39.3 0.9 151 26.3
2011-07-27 07:05:02 51°22.625 2°43.262 44.2 0.8 118 25.6
2011-07-27 07:06:02 51°22.623 2°43.284 29.8 0.7 85 24.7
2011-07-27 07:07:02 51°22.632 2°43.304 22.4 0.9 54 26.6
2011-07-27 07:08:02 51°22.637 2°43.323 23.6 0.7 97 25.8
2011-07-27 07:09:03 51°22.632 2°43.335 29.1 0.6 147 25
2011-07-27 07:10:02 51°22.62 2°43.346 39.3 0.9 151 25.7
2011-07-27 07:11:02 51°22.612 2°43.366 39.3 0.9 97 24.8
2011-07-27 07:12:02 51°22.616 2°43.392 21.9 0.8 67 27.7
2011-07-27 07:13:02 51°22.621 2°43.408 5.2 0.5 79 27.9
2011-07-27 07:14:02 51°22.617 2°43.42 3.5 0.7 129 27.9
2011-07-27 07:15:02 51°22.617 2°43.431 353.2 0.5 27 28.3
2011-07-27 07:16:02 51°22.626 2°43.43 339.1 0.3 332 27.8
2011-07-27 07:17:02 51°22.622 2°43.431 332.5 0.6 169 28
2011-07-27 07:18:03 51°22.607 2°43.437 322 1.1 166 27.3
2011-07-27 07:19:02 51°22.585 2°43.449 302 1.5 154 27.3
2011-07-27 07:20:03 51°22.575 2°43.437 304.6 1.4 276 27.8
2011-07-27 07:21:02 51°22.591 2°43.409 344.2 1.5 343 27.4
2011-07-27 07:22:02 51°22.606 2°43.409 4.2 0.7 41 28.1
2011-07-27 07:23:02 51°22.607 2°43.423 16.2 0.7 109 28.3
2011-07-27 07:24:02 51°22.603 2°43.44 20.1 0.7 92 28.1
2011-07-27 07:25:02 51°22.614 2°43.458 354.3 0.9 22 27.9
2011-07-27 07:26:02 51°22.623 2°43.456 333.5 0.5 321 27.9
2011-07-27 07:27:02 51°22.628 2°43.443 320.2 0.6 284 28.2
2011-07-27 07:28:02 51°22.63 2°43.426 325.3 0.5 264 28.6
2011-07-27 07:29:02 51°22.635 2°43.418 355 0.8 6 28.1
2011-07-27 07:30:02 51°22.649 2°43.455 61.3 2.5 83 27.6
2011-07-27 07:31:02 51°22.63 2°43.534 130.1 4 138 23.3
2011-07-27 07:32:02 51°22.573 2°43.555 194.8 3.3 194 24.2
2011-07-27 07:33:02 51°22.533 2°43.5 260.6 3.6 250 28.4
2011-07-27 07:34:03 51°22.549 2°43.425 322.4 2.4 312 28.3
2011-07-27 07:35:02 51°22.567 2°43.401 335 0.9 326 27.7
2011-07-27 07:36:02 51°22.57 2°43.396 340 0.3 195 27.5
2011-07-27 07:37:02 51°22.563 2°43.398 338.4 0.6 166 27.1
2011-07-27 07:38:02 51°22.55 2°43.403 329 0.8 169 27
2011-07-27 07:39:02 51°22.553 2°43.391 329.3 1.4 319 25.6
2011-07-27 07:40:02 51°22.569 2°43.379 343.5 0.8 349 25.1
2011-07-27 07:41:02 51°22.575 2°43.385 1.2 0.5 105 26.2
2011-07-27 07:42:02 51°22.584 2°43.41 25.5 1.9 48 28.3
2011-07-27 07:43:03 51°22.602 2°43.442 21.3 1.2 61 28.2
2011-07-27 07:44:02 51°22.605 2°43.467 27.9 1 76 27.7
2011-07-27 07:45:03 51°22.606 2°43.495 26.2 1.1 77 27.1
2011-07-27 07:46:02 51°22.62 2°43.519 357.2 1.5 16 25
2011-07-27 07:47:02 51°22.634 2°43.517 318.7 0.3 300 25.2
2011-07-27 07:48:02 51°22.629 2°43.515 294.5 0.7 173 24.5
2011-07-27 07:49:02 51°22.621 2°43.503 288.8 1.2 277 26.8
2011-07-27 07:50:02 51°22.63 2°43.474 317.3 0.8 306 28.1
2011-07-27 07:51:02 51°22.633 2°43.465 314.6 0.3 229 28
2011-07-27 07:52:02 51°22.626 2°43.466 307.1 0.8 210 28.6
2011-07-27 07:53:02 51°22.621 2°43.455 301.2 0.6 257 28.1
2011-07-27 07:54:03 51°22.621 2°43.443 318.8 0.1 235 28.4
2011-07-27 07:55:02 51°22.617 2°43.445 325.2 0.5 155 28.2
2011-07-27 07:56:02 51°22.608 2°43.453 322 0.8 153 28.1
2011-07-27 07:57:02 51°22.597 2°43.463 315.2 0.3 180 27.7
2011-07-27 07:58:02 51°22.604 2°43.456 330.7 1.1 328 28.6
2011-07-27 07:59:02 51°22.623 2°43.447 333.1 0.9 350 28.4
2011-07-27 08:00:02 51°22.631 2°43.446 327.4 0.3 336 28.2
2011-07-27 08:01:02 51°22.631 2°43.451 314.5 0.4 117 28.5
2011-07-27 08:02:02 51°22.622 2°43.462 292.2 0.4 142 28.5
2011-07-27 08:03:02 51°22.616 2°43.451 293.9 0.7 266 28.7
2011-07-27 08:04:02 51°22.612 2°43.438 299.4 0.5 262 28.6
2011-07-27 08:05:02 51°22.615 2°43.426 316.3 0.5 299 28.5
2011-07-27 08:06:02 51°22.617 2°43.424 327 0.3 118 28.5
2011-07-27 08:07:02 51°22.61 2°43.435 324.2 0.8 140 28.6
2011-07-27 08:08:02 51°22.599 2°43.452 315.8 1 137 28.2
2011-07-27 08:09:02 51°22.599 2°43.454 321.4 0.7 329 28
2011-07-27 08:10:03 51°22.611 2°43.455 339.8 0.7 22 28.4
2011-07-27 08:11:02 51°22.618 2°43.469 353.4 0.8 50 28.3
2011-07-27 08:12:03 51°22.626 2°43.487 347.7 0.7 70 27.2
2011-07-27 08:13:02 51°22.625 2°43.506 341.5 0.9 101 26.1
2011-07-27 08:14:03 51°22.619 2°43.53 339.1 1.2 123 25.7
2011-07-27 08:15:02 51°22.608 2°43.553 344 1.2 137 27.4
2011-07-27 08:16:02 51°22.593 2°43.578 345 0.7 98 25.9
2011-07-27 08:17:02 51°22.607 2°43.576 318.4 1.8 328 25.5
2011-07-27 08:18:02 51°22.618 2°43.557 302 0.8 301 26.2
2011-07-27 08:19:03 51°22.626 2°43.54 300.4 0.7 307 24.4
2011-07-27 08:20:02 51°22.628 2°43.537 302.3 0.3 129 24.5
2011-07-27 08:21:02 51°22.624 2°43.544 295.7 0.4 121 24.9
2011-07-27 08:22:02 51°22.619 2°43.548 291 0.4 141 25.2
2011-07-27 08:23:02 51°22.615 2°43.542 292.7 0.5 277 26.4
2011-07-27 08:24:02 51°22.617 2°43.53 303.4 0.5 300 24.9
2011-07-27 08:25:02 51°22.619 2°43.529 307.7 0.1 257 25.7
2011-07-27 08:26:02 51°22.62 2°43.534 311.3 0.4 106 25.7
2011-07-27 08:27:02 51°22.614 2°43.551 304.1 1.2 122 26
2011-07-27 08:28:03 51°22.606 2°43.566 291.1 0.4 177 26.9
2011-07-27 08:29:02 51°22.609 2°43.558 310.6 1 339 26.8
2011-07-27 08:30:03 51°22.629 2°43.55 328.4 1.2 358 25.8
2011-07-27 08:31:02 51°22.635 2°43.561 332.4 1.3 124 26.4
2011-07-27 08:32:05 51°22.619 2°43.591 331.4 1.5 131 27.5
2011-07-27 08:33:04 51°22.601 2°43.622 323.2 1.6 133 25.9
2011-07-27 08:34:02 51°22.594 2°43.64 300.9 0.1 308 26.5
2011-07-27 08:35:03 51°22.607 2°43.602 299.5 3 304 26.9
2011-07-27 08:36:02 51°22.639 2°43.543 308.5 2.4 318 26.8
2011-07-27 08:37:03 51°22.659 2°43.521 312.6 0.6 350 26.3
2011-07-27 08:38:02 51°22.658 2°43.535 312.6 0.8 134 27.4
2011-07-27 08:39:03 51°22.65 2°43.56 295.4 1.1 108 26.9
2011-07-27 08:40:02 51°22.646 2°43.573 277.4 0.6 258 26.8
2011-07-27 08:41:02 51°22.649 2°43.535 287.5 1.4 288 26.6
2011-07-27 08:42:02 51°22.654 2°43.517 291.2 0.1 67 25.5
2011-07-27 08:43:06 51°22.645 2°43.561 286.8 1.5 103 -999
2011-07-27 08:44:05 51°22.626 2°43.552 214.1 2.7 188 25.8
2011-07-27 08:45:03 51°22.581 2°43.604 128.9 4.2 116 26.5
2011-07-27 08:46:02 51°22.567 2°43.702 93.2 3.5 93 27.8
2011-07-27 08:47:02 51°22.568 2°43.79 81.2 3.2 86 26.2
2011-07-27 08:48:03 51°22.571 2°43.865 72.1 2.6 82 28.3
2011-07-27 08:49:02 51°22.614 2°43.933 3 4.2 10 26.9
2011-07-27 08:50:03 51°22.65 2°43.878 271.8 3.7 268 27.9
2011-07-27 08:51:02 51°22.655 2°43.763 275.7 4.4 275 28.6
2011-07-27 08:52:02 51°22.656 2°43.652 271.5 3.8 268 27.6
2011-07-27 08:53:03 51°22.659 2°43.571 275.9 2.1 273 26.9
2011-07-27 08:54:02 51°22.659 2°43.543 274.8 0.5 247 26.8
2011-07-27 08:55:03 51°22.656 2°43.541 273.2 0.3 158 26.9
2011-07-27 08:56:02 51°22.649 2°43.553 267.5 0.7 132 26.9
2011-07-27 08:57:03 51°22.642 2°43.557 263.7 0.6 233 27.1
2011-07-27 08:58:02 51°22.639 2°43.533 277.3 0.9 282 25
2011-07-27 08:59:03 51°22.639 2°43.513 276.4 0.7 265 26.1
2011-07-27 09:00:02 51°22.64 2°43.478 274.5 1.8 276 27.9
2011-07-27 09:01:02 51°22.642 2°43.42 273.6 2.4 273 29.4
2011-07-27 09:02:02 51°22.642 2°43.356 273 2.4 269 25.3
2011-07-27 09:03:03 51°22.615 2°43.314 207.1 2.7 192 27.6
2011-07-27 09:04:03 51°22.571 2°43.365 129.4 4 114 26
2011-07-27 09:05:02 51°22.568 2°43.469 81.9 3.9 82 29.2
2011-07-27 09:06:03 51°22.581 2°43.562 64.8 3.4 68 27.3
2011-07-27 09:07:02 51°22.605 2°43.642 43.9 4.1 55 27
2011-07-27 09:08:03 51°22.676 2°43.733 25 6.3 31 28
2011-07-27 09:09:03 51°22.78 2°43.8 12.4 7 20 27.4
2011-07-27 09:10:03 51°22.891 2°43.833 356 7 2 29
2011-07-27 09:11:03 51°23.009 2°43.837 355.5 7.2 1 28.5
2011-07-27 09:12:02 51°23.128 2°43.842 355.2 7.2 1 28.8
2011-07-27 09:13:03 51°23.252 2°43.851 358.6 7.4 2 28.9
2011-07-27 09:14:02 51°23.369 2°43.826 339.1 7.1 344 28.7
2011-07-27 09:15:03 51°23.488 2°43.775 342 7.4 348 28.2
2011-07-27 09:16:02 51°23.604 2°43.74 346 7.2 353 29.1
2011-07-27 09:17:03 51°23.727 2°43.725 348.9 7.2 355 27.6
2011-07-27 09:18:02 51°23.842 2°43.701 343.8 7.3 351 24.6
2011-07-27 09:19:02 51°23.963 2°43.67 344.6 7.3 352 29.1
2011-07-27 09:20:02 51°24.087 2°43.652 352.7 7.6 358 27.1
2011-07-27 09:21:01 51°24.213 2°43.653 356.5 7.8 2 28
2011-07-27 09:22:02 51°24.328 2°43.659 355 5.6 4 25.5
2011-07-27 09:23:02 51°24.399 2°43.672 354.3 3.5 8 27.8
2011-07-27 09:24:02 51°24.448 2°43.679 338.9 2.6 359 25.7
2011-07-27 09:25:02 51°24.49 2°43.672 332.7 2.6 350 22.3
2011-07-27 09:26:02 51°24.534 2°43.674 353 2.8 8 25.7
2011-07-27 09:27:01 51°24.577 2°43.68 334.4 1.8 4 27.2
2011-07-27 09:28:02 51°24.595 2°43.686 321 0.7 33 26.4
2011-07-27 09:29:01 51°24.602 2°43.689 294 0.4 32 26
2011-07-27 09:30:01 51°24.607 2°43.689 293.9 1.1 310 26
2011-07-27 09:31:02 51°24.632 2°43.667 328.1 1.9 353 26
2011-07-27 09:32:01 51°24.651 2°43.673 336.9 0.8 44 23.9
2011-07-27 09:33:03 51°24.66 2°43.689 333.1 0.8 57 21.8
2011-07-27 09:34:02 51°24.665 2°43.707 321.6 0.5 44 24
2011-07-27 09:35:02 51°24.669 2°43.72 302.1 0.7 84 23
2011-07-27 09:36:02 51°24.668 2°43.739 282.3 0.9 101 26.1
2011-07-27 09:37:02 51°24.666 2°43.763 265.7 1.2 100 25.1
2011-07-27 09:38:03 51°24.665 2°43.791 254.8 0.6 104 22.5
2011-07-27 09:39:01 51°24.663 2°43.768 276.3 2.1 283 25.1
2011-07-27 09:40:02 51°24.675 2°43.712 270.1 1.7 281 24.7
2011-07-27 09:41:01 51°24.672 2°43.692 258.9 0.2 224 24.9
2011-07-27 09:42:01 51°24.671 2°43.699 273.4 0.7 84 25.3
2011-07-27 09:43:02 51°24.671 2°43.718 278.1 0.8 89 22.7
2011-07-27 09:44:01 51°24.671 2°43.74 276.4 1 84 25.8
2011-07-27 09:45:01 51°24.671 2°43.764 270.8 0.6 99 24.6
2011-07-27 09:46:01 51°24.67 2°43.762 268.5 0.8 276 24.7
2011-07-27 09:47:02 51°24.671 2°43.726 271.1 1.6 281 23.2
2011-07-27 09:48:01 51°24.675 2°43.697 276.6 0.3 313 25
2011-07-27 09:49:02 51°24.677 2°43.702 283.9 0.4 79 26
2011-07-27 09:50:02 51°24.68 2°43.717 285.3 0.6 88 25.7
2011-07-27 09:51:02 51°24.679 2°43.734 280 0.8 90 24.3
2011-07-27 09:52:01 51°24.678 2°43.757 270.5 0.9 90 24.1
2011-07-27 09:53:02 51°24.676 2°43.778 259.2 0.2 107 23.3
2011-07-27 09:54:02 51°24.67 2°43.758 257.7 1.5 259 24.6
2011-07-27 09:55:02 51°24.67 2°43.716 273 1.4 286 22
2011-07-27 09:56:03 51°24.675 2°43.69 278 0.2 328 24.5
2011-07-27 09:57:02 51°24.679 2°43.69 285.3 0.3 58 25.3
2011-07-27 09:58:02 51°24.682 2°43.699 290.4 0.5 69 25.8
2011-07-27 09:59:01 51°24.684 2°43.716 288.6 0.7 87 26.1
2011-07-27 10:00:02 51°24.683 2°43.74 277.3 1 89 25.2
2011-07-27 10:01:02 51°24.683 2°43.769 264.2 1.1 88 24.2
2011-07-27 10:02:01 51°24.683 2°43.795 247.8 0.5 118 25.4
2011-07-27 10:03:02 51°24.668 2°43.785 232.1 1.7 225 23.6
2011-07-27 10:04:02 51°24.664 2°43.742 272.8 1.7 277 26
2011-07-27 10:05:02 51°24.664 2°43.709 260.1 1.1 254 24.9
2011-07-27 10:06:02 51°24.665 2°43.7 266.4 0.2 307 23.8
2011-07-27 10:07:03 51°24.667 2°43.7 269.9 0.2 19 23.8
2011-07-27 10:08:02 51°24.67 2°43.706 275.9 0.5 51 23.5
2011-07-27 10:09:02 51°24.672 2°43.72 278.6 0.7 81 22.7
2011-07-27 10:10:02 51°24.671 2°43.742 271.3 0.9 84 25.5
2011-07-27 10:11:03 51°24.671 2°43.762 263.5 0.3 91 24.5
2011-07-27 10:12:02 51°24.67 2°43.752 266.8 1 273 25.3
2011-07-27 10:13:02 51°24.672 2°43.722 265.8 1.2 271 23
2011-07-27 10:14:03 51°24.669 2°43.701 257.1 0.5 251 24.2
2011-07-27 10:15:02 51°24.67 2°43.696 265.7 -999 104 24.8
2011-07-27 10:16:02 51°24.671 2°43.704 266.8 0.5 96 25.3
2011-07-27 10:17:02 51°24.672 2°43.72 270.4 0.7 95 22.8
2011-07-27 10:18:03 51°24.674 2°43.736 266.4 0.5 87 25.5
2011-07-27 10:19:02 51°24.673 2°43.749 256.7 0.4 79 24.9
2011-07-27 10:20:02 51°24.672 2°43.761 248.9 0.5 117 24.7
2011-07-27 10:21:03 51°24.67 2°43.771 248.2 0.4 108 24.2
2011-07-27 10:22:01 51°24.668 2°43.78 245.8 0.3 107 23.7
2011-07-27 10:23:02 51°24.666 2°43.785 247.4 0.2 140 23.2
2011-07-27 10:24:02 51°24.663 2°43.788 246.9 0.2 161 23.1
2011-07-27 10:25:03 51°24.66 2°43.787 247 0.3 175 23.9
2011-07-27 10:26:01 51°24.657 2°43.782 254.8 1 253 24
2011-07-27 10:27:02 51°24.657 2°43.733 273.4 2.1 285 26.3
2011-07-27 10:28:02 51°24.67 2°43.701 294.3 1 315 25.4
2011-07-27 10:29:01 51°24.674 2°43.712 289.7 0.8 92 24.6
2011-07-27 10:30:02 51°24.674 2°43.735 269.8 0.9 91 25.2
2011-07-27 10:31:02 51°24.675 2°43.759 254.6 1 93 24.4
2011-07-27 10:32:03 51°24.675 2°43.782 247.2 0.4 123 23.3
2011-07-27 10:33:01 51°24.668 2°43.764 253.1 1.5 245 25
2011-07-27 10:34:02 51°24.663 2°43.723 260 1 257 26.6
2011-07-27 10:35:02 51°24.662 2°43.702 269.2 0.7 287 24.1
2011-07-27 10:36:03 51°24.665 2°43.694 273.3 0.2 330 22.8
2011-07-27 10:37:02 51°24.667 2°43.7 274 0.5 74 23.6
2011-07-27 10:38:02 51°24.668 2°43.715 269.4 0.8 83 22.1
2011-07-27 10:39:02 51°24.668 2°43.736 264.6 0.8 97 25.6
2011-07-27 10:40:01 51°24.669 2°43.759 256.8 1.1 94 25.8
2011-07-27 10:41:02 51°24.67 2°43.786 254 1 90 23
2011-07-27 10:42:02 51°24.666 2°43.791 255.9 1.2 246 23.2
2011-07-27 10:43:03 51°24.665 2°43.751 267.5 1.2 282 24.9
2011-07-27 10:44:02 51°24.667 2°43.73 265 0.7 277 25.3
2011-07-27 10:45:02 51°24.668 2°43.723 266.9 0.2 136 25.1
2011-07-27 10:46:02 51°24.671 2°43.714 275.4 0.6 307 21.8
2011-07-27 10:47:01 51°24.674 2°43.711 281 0.3 11 25.3
2011-07-27 10:48:02 51°24.678 2°43.717 285.1 0.4 81 25.2
2011-07-27 10:49:02 51°24.679 2°43.732 279.8 0.7 88 24.2
2011-07-27 10:50:02 51°24.678 2°43.753 264.4 0.9 86 23.9
2011-07-27 10:51:01 51°24.676 2°43.767 237.9 0.7 193 23.9
2011-07-27 10:52:02 51°24.662 2°43.744 252.3 1.5 252 25.6
2011-07-27 10:53:02 51°24.666 2°43.707 283.9 1 297 23.4
2011-07-27 10:54:01 51°24.669 2°43.705 282.3 0.3 48 22.9
2011-07-27 10:55:01 51°24.671 2°43.714 277.3 0.4 108 22.6
2011-07-27 10:56:02 51°24.67 2°43.729 265.4 0.8 88 25.1
2011-07-27 10:57:02 51°24.671 2°43.751 254.2 0.9 91 24.6
2011-07-27 10:58:01 51°24.672 2°43.777 245.4 1 97 23.8
2011-07-27 10:59:03 51°24.655 2°43.776 205.3 2.2 185 24.9
2011-07-27 11:00:02 51°24.591 2°43.798 171.5 6.9 162 27.2
2011-07-27 11:01:02 51°24.45 2°43.869 172.9 9.6 170 24.2
2011-07-27 11:02:01 51°24.295 2°43.87 179.3 9.3 168 26.1
2011-07-27 11:03:01 51°24.154 2°43.994 145.1 9.3 133 25.3
2011-07-27 11:04:02 51°24.101 2°44.137 127.6 4.7 119 27.5
2011-07-27 11:05:02 51°24.055 2°44.188 190.2 2.7 175 28.8
2011-07-27 11:06:01 51°24.01 2°44.189 188 3.1 173 27
2011-07-27 11:07:01 51°23.971 2°44.181 218.8 1.6 200 27.3
2011-07-27 11:08:02 51°23.955 2°44.172 226.9 0.6 194 28.5
2011-07-27 11:09:02 51°23.947 2°44.172 236.9 0.5 152 28.2
2011-07-27 11:10:01 51°23.943 2°44.18 244.7 0.3 111 27.8
2011-07-27 11:11:02 51°23.942 2°44.192 250.5 0.6 89 27.5
2011-07-27 11:12:02 51°23.944 2°44.224 252.4 1.9 77 27.9
2011-07-27 11:13:02 51°23.956 2°44.283 233.8 2.4 64 27
2011-07-27 11:14:02 51°23.961 2°44.317 202.2 1 157 26.6
2011-07-27 11:15:02 51°23.938 2°44.313 224.3 1.1 211 25.3
2011-07-27 11:16:02 51°23.926 2°44.298 238.5 0.9 221 27.9
2011-07-27 11:17:01 51°23.92 2°44.296 246.3 0.5 121 28.5
2011-07-27 11:18:02 51°23.918 2°44.307 253.8 0.4 82 28.2
2011-07-27 11:19:02 51°23.918 2°44.32 260.2 0.6 91 29.3
2011-07-27 11:20:02 51°23.919 2°44.334 264.6 0.6 96 29.3
2011-07-27 11:21:01 51°23.919 2°44.354 265.9 0.7 94 29.2
2011-07-27 11:22:02 51°23.919 2°44.377 263.9 1 94 28.7
2011-07-27 11:23:02 51°23.917 2°44.379 255.6 1.1 260 28.7
2011-07-27 11:24:01 51°23.916 2°44.329 270.2 1.9 276 29
2011-07-27 11:25:01 51°23.921 2°44.3 276 0.2 299 28.3
2011-07-27 11:26:02 51°23.924 2°44.304 278.1 0.3 59 26.8
2011-07-27 11:27:02 51°23.927 2°44.313 279.8 0.6 91 25.4
2011-07-27 11:28:01 51°23.927 2°44.33 274.2 0.7 99 29.2
2011-07-27 11:29:01 51°23.928 2°44.35 269.4 0.8 92 28.9
2011-07-27 11:30:02 51°23.928 2°44.364 249 0.3 237 28.7
2011-07-27 11:31:02 51°23.915 2°44.338 237.8 1.9 240 29.2
2011-07-27 11:32:01 51°23.909 2°44.304 265.2 0.9 272 28.4
2011-07-27 11:33:03 51°23.912 2°44.296 276.6 0.4 37 29.3
2011-07-27 11:34:02 51°23.914 2°44.304 281.9 0.4 87 29
2011-07-27 11:35:02 51°23.916 2°44.316 280.3 0.6 82 28.7
2011-07-27 11:36:01 51°23.916 2°44.333 276.9 0.7 95 29.1
2011-07-27 11:37:03 51°23.916 2°44.344 266.1 0.4 275 28.7
2011-07-27 11:38:02 51°23.917 2°44.312 272.9 1.6 283 25.9
2011-07-27 11:39:02 51°23.921 2°44.296 279.5 0.1 292 28.5
2011-07-27 11:40:01 51°23.924 2°44.299 282.4 0.3 58 27.8
2011-07-27 11:41:01 51°23.925 2°44.307 279.8 0.4 81 26.2
2011-07-27 11:42:02 51°23.925 2°44.32 275.1 0.6 90 27.7
2011-07-27 11:43:02 51°23.925 2°44.338 268.3 0.7 88 29.1
2011-07-27 11:44:01 51°23.924 2°44.357 257.6 0.6 113 28.9
2011-07-27 11:45:02 51°23.913 2°44.335 245.7 2 252 28.3
2011-07-27 11:46:02 51°23.915 2°44.301 272.8 0.6 303 29.2
2011-07-27 11:47:02 51°23.918 2°44.3 277 0.2 37 28.1
2011-07-27 11:48:01 51°23.922 2°44.304 278.1 0.4 29 27.1
2011-07-27 11:49:02 51°23.925 2°44.313 277.3 0.3 71 25.6
2011-07-27 11:50:02 51°23.926 2°44.323 274.8 0.5 87 27.8
2011-07-27 11:51:02 51°23.927 2°44.337 268.8 0.6 87 28.7
2011-07-27 11:52:02 51°23.927 2°44.352 262.9 0.6 86 28.3
2011-07-27 11:53:02 51°23.928 2°44.368 261.6 0.6 88 28.4
2011-07-27 11:54:02 51°23.929 2°44.383 257.8 0.3 256 27.5
2011-07-27 11:55:02 51°23.928 2°44.3 277.1 5.1 284 26.1
2011-07-27 11:56:02 51°23.988 2°44.177 320.7 6.2 326 24.3
2011-07-27 11:57:02 51°24.085 2°44.086 320.4 6.4 324 26.8
2011-07-27 11:58:02 51°24.146 2°43.995 306.5 4.1 312 24.8
2011-07-27 11:59:02 51°24.187 2°43.916 299.8 3.4 305 26.4
2011-07-27 12:00:02 51°24.217 2°43.84 300.9 3.3 312 28
2011-07-27 12:01:02 51°24.255 2°43.791 326.6 2.8 335 27.8
2011-07-27 12:02:02 51°24.306 2°43.783 356.4 3.4 3 27.8
2011-07-27 12:03:02 51°24.361 2°43.802 8.7 3.4 17 22.7
2011-07-27 12:04:02 51°24.416 2°43.826 2.9 3.5 8 27.4
2011-07-27 12:05:02 51°24.474 2°43.832 350.9 3.4 1 24.6
2011-07-27 12:06:03 51°24.534 2°43.826 343.2 3.6 350 26.8
2011-07-27 12:07:01 51°24.585 2°43.808 338.7 2.9 351 26.1
2011-07-27 12:08:02 51°24.624 2°43.799 340.2 2.3 355 25
2011-07-27 12:09:03 51°24.657 2°43.796 340.7 1.8 -999 21.7
2011-07-27 12:10:03 51°24.682 2°43.794 336.1 1.3 355 24.7
2011-07-27 12:11:01 51°24.704 2°43.789 328.9 1.4 350 24.9
2011-07-27 12:12:01 51°24.727 2°43.779 323.1 1.3 344 24.6
2011-07-27 12:13:03 51°24.743 2°43.766 315.4 1.1 327 24.3
2011-07-27 12:14:03 51°24.754 2°43.744 284.3 1.5 290 22.2
2011-07-27 12:15:01 51°24.743 2°43.699 219.5 2.2 217 24.1
2011-07-27 12:16:02 51°24.701 2°43.705 168.3 2.9 163 25
2011-07-27 12:17:03 51°24.657 2°43.719 188.8 1.7 178 25.6
2011-07-27 12:18:03 51°24.645 2°43.721 218 0.5 177 25.4
2011-07-27 12:19:01 51°24.64 2°43.719 233.6 0.4 196 25.1
2011-07-27 12:20:01 51°24.64 2°43.725 238.8 0.3 66 25.2
2011-07-27 12:21:03 51°24.644 2°43.745 240.6 1.1 78 26.1
2011-07-27 12:22:03 51°24.651 2°43.771 226.5 0.2 101 24.1
2011-07-27 12:23:02 51°24.647 2°43.738 274.3 2.4 280 26
2011-07-27 12:24:03 51°24.678 2°43.689 331.1 2.8 339 24.2
2011-07-27 12:25:03 51°24.718 2°43.695 19.9 1.6 31 24.8
2011-07-27 12:26:03 51°24.724 2°43.705 61.8 0.1 339 24.2
2011-07-27 12:27:06 51°24.725 2°43.71 84.4 0.7 85 23.9
2011-07-27 12:28:05 51°24.715 2°43.759 137.2 2.5 126 22.3
2011-07-27 12:29:02 51°24.667 2°43.75 225.5 3.5 234 23.9
2011-07-27 12:30:03 51°24.653 2°43.704 244.1 0.5 263 24
2011-07-27 12:31:03 51°24.656 2°43.716 237.3 1.1 69 25.8
2011-07-27 12:32:06 51°24.662 2°43.736 221.7 0.7 64 -999
2011-07-27 12:33:06 51°24.665 2°43.749 218.2 0.5 76 24.6
2011-07-27 12:34:03 51°24.665 2°43.758 223.2 0.3 111 23.9
2011-07-27 12:35:03 51°24.662 2°43.76 239.9 0.2 195 24.2
2011-07-27 12:36:03 51°24.656 2°43.744 239.9 1.2 236 25.5
2011-07-27 12:37:03 51°24.623 2°43.716 192.2 3.1 183 22.2
2011-07-27 12:38:02 51°24.543 2°43.733 178.7 6.1 173 25.2
2011-07-27 12:39:02 51°24.432 2°43.733 188.2 6.9 186 21.6
2011-07-27 12:40:03 51°24.317 2°43.71 190.9 6.4 185 26.6
2011-07-27 12:41:02 51°24.223 2°43.694 188.9 5.6 185 27.4
2011-07-27 12:42:03 51°24.131 2°43.684 186.1 5.3 181 24.6
2011-07-27 12:43:02 51°24.044 2°43.685 184.9 5.4 179 25.1
2011-07-27 12:44:02 51°23.955 2°43.683 187.9 5.3 184 27
2011-07-27 12:45:02 51°23.868 2°43.671 190.2 5.2 186 24.2
2011-07-27 12:46:02 51°23.781 2°43.664 186.7 5.3 182 26.8
2011-07-27 12:47:02 51°23.692 2°43.661 190.2 5.3 187 26.5
2011-07-27 12:48:02 51°23.609 2°43.621 203.9 5.2 202 26.7
2011-07-27 12:49:02 51°23.532 2°43.575 202.8 4.5 199 27.8
2011-07-27 12:50:02 51°23.461 2°43.536 202.4 4.5 198 27.9
2011-07-27 12:51:03 51°23.39 2°43.502 198.7 4.4 195 27
2011-07-27 12:52:02 51°23.321 2°43.478 196.6 4.3 191 27.2
2011-07-27 12:53:02 51°23.253 2°43.451 199.9 4.2 194 24.3
2011-07-27 12:54:03 51°23.185 2°43.418 201.6 4 197 27.7
2011-07-27 12:55:02 51°23.125 2°43.391 200.3 3.8 192 27.7
2011-07-27 12:56:03 51°23.063 2°43.367 198.9 3.6 193 28
2011-07-27 12:57:02 51°23.006 2°43.357 186.7 3.4 180 25.7
2011-07-27 12:58:02 51°22.953 2°43.37 172.6 3.1 164 25.6
2011-07-27 12:59:02 51°22.906 2°43.395 172 2.9 163 26.8
2011-07-27 13:00:03 51°22.86 2°43.408 183.3 2.7 174 27.1
2011-07-27 13:01:03 51°22.819 2°43.408 192.2 2.2 182 26
2011-07-27 13:02:02 51°22.791 2°43.401 202.1 1.5 194 26.3
2011-07-27 13:03:02 51°22.773 2°43.392 211.4 0.9 201 25.6
2011-07-27 13:04:02 51°22.76 2°43.386 217.8 0.6 183 25.2
2011-07-27 13:05:02 51°22.76 2°43.396 224.9 0.5 91 24.5
2011-07-27 13:06:02 51°22.759 2°43.406 228.8 0.4 112 26.1
2011-07-27 13:07:03 51°22.758 2°43.412 235 0.1 119 26.1
2011-07-27 13:08:02 51°22.755 2°43.416 242.1 0.4 144 26.7
2011-07-27 13:09:03 51°22.752 2°43.419 245.8 0.3 152 26.1
2011-07-27 13:10:02 51°22.749 2°43.422 251.4 0.2 157 26.2
2011-07-27 13:11:03 51°22.745 2°43.42 255.1 0.3 211 25.5
2011-07-27 13:12:03 51°22.74 2°43.405 256.7 0.9 252 24.4
2011-07-27 13:13:02 51°22.738 2°43.398 263.6 1 89 25
2011-07-27 13:14:06 51°22.733 2°43.416 230.2 2.1 222 -999
2011-07-27 13:15:05 51°22.713 2°43.35 266.6 2.7 268 24
2011-07-27 13:16:03 51°22.712 2°43.335 280.5 1 105 26
2011-07-27 13:17:06 51°22.708 2°43.361 261.2 0.4 137 25.2
2011-07-27 13:18:06 51°22.704 2°43.359 255.6 0.7 228 24.9
2011-07-27 13:19:04 51°22.7 2°43.328 270.5 2 266 24.5
2011-07-27 13:20:03 51°22.701 2°43.284 279.1 1.3 274 26.1
2011-07-27 13:21:02 51°22.701 2°43.258 281.1 0.8 257 25.7
2011-07-27 13:22:02 51°22.701 2°43.242 279.1 0.5 235 23.8
2011-07-27 13:23:03 51°22.699 2°43.234 278.1 0.3 270 24.5
2011-07-27 13:24:02 51°22.696 2°43.225 281.2 0.5 262 25.3
2011-07-27 13:25:03 51°22.698 2°43.205 295.9 0.9 285 25.5
2011-07-27 13:26:02 51°22.708 2°43.179 317.5 1.3 314 26.7
2011-07-27 13:27:03 51°22.725 2°43.158 344.1 1.3 338 27.1
2011-07-27 13:28:02 51°22.746 2°43.159 25.8 1.1 28 26.6
2011-07-27 13:29:02 51°22.757 2°43.184 72.9 1.2 76 25.8
2011-07-27 13:30:02 51°22.756 2°43.209 86.5 0.4 131 24.8
2011-07-27 13:31:02 51°22.752 2°43.208 90.3 0.3 196 24.1
2011-07-27 13:32:02 51°22.747 2°43.205 103.9 0.2 203 24.7
2011-07-27 13:33:02 51°22.743 2°43.204 111.7 0.2 147 24.5
2011-07-27 13:34:02 51°22.74 2°43.205 106.2 0.1 171 24.9
2011-07-27 13:35:02 51°22.736 2°43.205 102.8 0.3 179 24.7
2011-07-27 13:36:02 51°22.732 2°43.208 98.7 0.4 169 24.8
2011-07-27 13:37:02 51°22.729 2°43.212 93.7 0.3 154 24.6
2011-07-27 13:38:02 51°22.726 2°43.21 93.1 0.3 220 25.1
2011-07-27 13:39:03 51°22.723 2°43.206 96.2 0.3 221 25.5
2011-07-27 13:40:02 51°22.719 2°43.202 101.2 0.2 213 26.3
2011-07-27 13:41:02 51°22.714 2°43.2 100.5 0.3 165 25.8
2011-07-27 13:42:02 51°22.71 2°43.206 89.1 0.5 125 25.4
2011-07-27 13:43:03 51°22.711 2°43.217 77 0.3 78 24.9
2011-07-27 13:44:02 51°22.71 2°43.22 74.8 0.1 102 24.8
2011-07-27 13:45:02 51°22.708 2°43.22 72.4 0.2 184 24.8
2011-07-27 13:46:02 51°22.704 2°43.22 74.1 0.2 262 24.7
2011-07-27 13:47:03 51°22.701 2°43.218 74.3 0.3 212 25
2011-07-27 13:48:02 51°22.696 2°43.216 79.7 0.2 206 24.7
2011-07-27 13:49:02 51°22.691 2°43.213 83.2 0.4 186 25
2011-07-27 13:50:02 51°22.687 2°43.218 77.8 0.4 115 25
2011-07-27 13:51:02 51°22.686 2°43.227 68.2 0.4 71 23.9
2011-07-27 13:52:03 51°22.686 2°43.236 60.3 0.3 86 23.6
2011-07-27 13:53:02 51°22.685 2°43.24 59 0.1 110 23.3
2011-07-27 13:54:03 51°22.682 2°43.24 62.9 0.4 170 24.1
2011-07-27 13:55:03 51°22.677 2°43.238 70.1 0.2 213 24.2
2011-07-27 13:56:02 51°22.671 2°43.236 77.3 0.2 207 24.2
2011-07-27 13:57:03 51°22.665 2°43.232 82.9 0.4 215 25.2
2011-07-27 13:58:02 51°22.659 2°43.227 89.2 0.5 206 25.4
2011-07-27 13:59:02 51°22.651 2°43.223 93.6 0.3 207 25.4
2011-07-27 14:00:02 51°22.644 2°43.219 94.8 0.5 192 25.6
2011-07-27 14:01:03 51°22.637 2°43.217 91.4 0.5 189 26.4
2011-07-27 14:02:03 51°22.636 2°43.231 69.3 0.9 73 25.6
2011-07-27 14:03:03 51°22.641 2°43.253 48.5 0.9 52 24.7
2011-07-27 14:04:02 51°22.653 2°43.268 35 0.8 30 23.1
2011-07-27 14:05:03 51°22.658 2°43.272 35.8 0.1 49 23
2011-07-27 14:06:02 51°22.655 2°43.272 44.5 0.4 153 22.8
2011-07-27 14:07:02 51°22.648 2°43.268 59.6 0.5 200 23.3
2011-07-27 14:08:03 51°22.639 2°43.262 75 0.6 200 24.4
2011-07-27 14:09:02 51°22.631 2°43.256 88.7 0.6 204 24.6
2011-07-27 14:10:03 51°22.623 2°43.252 97.8 0.7 192 24.9
2011-07-27 14:11:03 51°22.615 2°43.251 97.2 0.5 181 25.2
2011-07-27 14:12:02 51°22.608 2°43.253 85.9 0.6 126 25.5
2011-07-27 14:13:03 51°22.61 2°43.274 56.4 1.1 63 23.9
2011-07-27 14:14:02 51°22.623 2°43.291 27.6 0.8 16 23.2
2011-07-27 14:15:02 51°22.633 2°43.292 15 0.3 336 23.9
2011-07-27 14:16:02 51°22.634 2°43.287 18.8 0.2 225 23.2
2011-07-27 14:17:02 51°22.628 2°43.282 30.1 0.6 209 23.1
2011-07-27 14:18:02 51°22.617 2°43.273 48.3 0.9 214 23.9
2011-07-27 14:19:02 51°22.606 2°43.259 67.6 0.8 225 25.2
2011-07-27 14:20:02 51°22.597 2°43.252 75.9 0.6 137 25.5
2011-07-27 14:21:02 51°22.6 2°43.27 51.5 0.9 68 24.9
2011-07-27 14:22:02 51°22.61 2°43.282 32 0.8 18 23
2011-07-27 14:23:02 51°22.619 2°43.285 30.8 0.3 4 23.5
2011-07-27 14:24:02 51°22.62 2°43.284 32.7 0.2 249 23.5
2011-07-27 14:25:02 51°22.616 2°43.28 41.2 0.4 208 23.2
2011-07-27 14:26:03 51°22.61 2°43.276 54.5 0.4 188 23.8
2011-07-27 14:27:02 51°22.607 2°43.278 55.1 0.3 112 23.9
2011-07-27 14:28:03 51°22.611 2°43.287 36.4 0.7 32 22.8
2011-07-27 14:29:03 51°22.624 2°43.291 20.7 0.5 358 23.2
2011-07-27 14:30:02 51°22.628 2°43.289 23.8 0.2 288 22.8
2011-07-27 14:31:02 51°22.626 2°43.283 29.7 0.3 199 22.8
2011-07-27 14:32:02 51°22.619 2°43.276 42.5 0.7 204 23.7
2011-07-27 14:33:02 51°22.608 2°43.266 59.1 0.8 207 24.4
2011-07-27 14:34:02 51°22.597 2°43.253 80.2 0.8 215 24.6
2011-07-27 14:35:02 51°22.587 2°43.244 89.2 0.6 129 25.6
2011-07-27 14:36:02 51°22.591 2°43.271 52 1.5 53 23.9
2011-07-27 14:37:03 51°22.606 2°43.287 34.1 0.7 25 22.9
2011-07-27 14:38:03 51°22.614 2°43.295 44.9 0.4 15 23.7
2011-07-27 14:39:03 51°22.616 2°43.304 54 0.7 61 24.8
2011-07-27 14:40:03 51°22.62 2°43.32 57.5 0.5 66 25.2
2011-07-27 14:41:02 51°22.629 2°43.334 33.7 0.9 17 24.3
2011-07-27 14:42:03 51°22.638 2°43.338 26.8 0.3 347 22.3
2011-07-27 14:43:02 51°22.64 2°43.336 29.5 0.2 251 22.2
2011-07-27 14:44:02 51°22.636 2°43.33 33 0.4 215 23.6
2011-07-27 14:45:02 51°22.632 2°43.325 37.7 0.1 232 24.8
2011-07-27 14:46:03 51°22.638 2°43.332 37.8 0.8 40 22.8
2011-07-27 14:47:03 51°22.651 2°43.347 40.1 1 32 23.9
2011-07-27 14:48:03 51°22.666 2°43.368 45.9 1.3 53 26.8
2011-07-27 14:49:02 51°22.681 2°43.397 50.7 1.4 48 26.8
2011-07-27 14:50:03 51°22.696 2°43.425 46.6 1.1 45 26.3
2011-07-27 14:51:02 51°22.704 2°43.435 41.9 0.2 47 25.1
2011-07-27 14:52:02 51°22.706 2°43.436 44.9 0.1 216 24.6
2011-07-27 14:53:03 51°22.7 2°43.431 49.8 0.6 228 25.5
2011-07-27 14:54:02 51°22.693 2°43.429 61.5 0.8 81 25.6
2011-07-27 14:55:03 51°22.722 2°43.479 36.8 3.5 29 24.2
2011-07-27 14:56:03 51°22.772 2°43.467 337.2 2.9 320 25.6
2011-07-27 14:57:02 51°22.784 2°43.401 281.1 2.7 269 25.3
2011-07-27 14:58:03 51°22.774 2°43.321 260.9 3.7 256 25.9
2011-07-27 14:59:02 51°22.755 2°43.218 254.5 4.2 250 23.1
2011-07-27 15:00:02 51°22.718 2°43.138 220.1 3.3 223 25.9
2011-07-27 15:01:02 51°22.681 2°43.088 214.6 2.7 218 25.8
2011-07-27 15:02:03 51°22.648 2°43.044 217.4 2.4 223 25.2
2011-07-27 15:03:02 51°22.622 2°43.005 224.9 2.1 226 23.1
2011-07-27 15:04:03 51°22.594 2°42.963 208 2.9 215 25.6
2011-07-27 15:05:02 51°22.546 2°42.967 132.2 2.7 146 25.5
2011-07-27 15:06:02 51°22.53 2°43.015 82.2 1.6 93 25.5
2011-07-27 15:07:03 51°22.538 2°43.055 60.3 1.7 61 23.2
2011-07-27 15:08:02 51°22.554 2°43.095 54.5 1.7 57 25.5
2011-07-27 15:09:02 51°22.571 2°43.13 48.8 1.7 45 22.8
2011-07-27 15:10:02 51°22.597 2°43.167 41.5 2.4 38 25.1
2011-07-27 15:11:03 51°22.615 2°43.209 76.7 1.9 86 24.8
2011-07-27 15:12:02 51°22.588 2°43.251 145.9 2.9 165 25.1
2011-07-27 15:13:03 51°22.538 2°43.23 205.3 3.4 215 23.3
2011-07-27 15:14:02 51°22.499 2°43.162 232.6 3.8 231 24
2011-07-27 15:15:03 51°22.466 2°43.079 242.1 3.5 239 23.5
2011-07-27 15:16:02 51°22.444 2°43.01 251.2 2.6 245 23.5
2011-07-27 15:17:02 51°22.428 2°42.953 257.5 2.1 249 25.8
2011-07-27 15:18:03 51°22.415 2°42.906 266.5 1.7 248 23.8
2011-07-27 15:19:02 51°22.405 2°42.867 274.4 1.6 243 25.6
2011-07-27 15:20:02 51°22.394 2°42.833 280.2 1.4 240 23.9
2011-07-27 15:21:03 51°22.383 2°42.803 285.9 1.2 238 24.6
2011-07-27 15:22:02 51°22.372 2°42.761 267.3 2.8 253 22.4
2011-07-27 15:23:02 51°22.328 2°42.693 188.4 4.4 195 22.4
2011-07-27 15:24:02 51°22.229 2°42.726 149.5 8 155 23
2011-07-27 15:25:02 51°22.106 2°42.882 131.2 10.9 134 22.5
2011-07-27 15:26:02 51°21.965 2°43.107 131.3 12.3 137 20.2
2011-07-27 15:27:03 51°21.818 2°43.345 132.3 12.4 135 22.5
2011-07-27 15:28:02 51°21.669 2°43.566 134.4 12.3 138 22.5
2011-07-27 15:29:02 51°21.515 2°43.786 132.9 12.4 137 21.3
2011-07-27 15:30:02 51°21.371 2°44.021 128.7 12.3 133 22
2011-07-27 15:31:02 51°21.23 2°44.265 128.3 12.5 134 23.7
2011-07-27 15:32:02 51°21.087 2°44.508 131 12.4 136 25
2011-07-27 15:33:02 51°20.932 2°44.73 134.8 12.6 142 26
2011-07-27 15:34:03 51°20.775 2°44.96 134.7 11.9 133 25.9
2011-07-27 15:35:02 51°20.619 2°45.176 134.8 12.5 138 25.2
2011-07-27 15:36:03 51°20.467 2°45.411 132.1 12.6 138 23.4
2011-07-27 15:37:02 51°20.317 2°45.639 132.2 12.5 135 20.6
2011-07-27 15:38:02 51°20.169 2°45.866 134.8 12.1 140 14.1
2011-07-27 15:39:03 51°20.018 2°46.093 131.5 12.4 130 13.1
2011-07-27 15:40:02 51°19.894 2°46.337 124.5 12.4 129 15.7
2011-07-27 15:41:02 51°19.772 2°46.6 123.6 12.4 125 18.5
2011-07-27 15:42:02 51°19.649 2°46.861 124.8 12.3 128 19.7
2011-07-27 15:43:03 51°19.517 2°47.122 123.5 12.4 127 21.1
2011-07-27 15:44:02 51°19.394 2°47.377 126.9 12.6 132 20.8
2011-07-27 15:45:03 51°19.262 2°47.635 121.9 12.2 126 19.8
2011-07-27 15:46:02 51°19.137 2°47.888 122.9 12.3 131 17.9
2011-07-27 15:47:03 51°19.005 2°48.146 125.2 11.9 130 16.1
2011-07-27 15:48:02 51°18.882 2°48.399 123.8 12.4 127 13.7
2011-07-27 15:49:02 51°18.754 2°48.651 125.5 12.2 132 12
2011-07-27 15:50:03 51°18.624 2°48.906 126.1 12.2 130 9.8
2011-07-27 15:51:02 51°18.501 2°49.154 126.7 12.4 132 9.8
2011-07-27 15:52:03 51°18.366 2°49.407 125.6 12.4 131 10.9
2011-07-27 15:53:02 51°18.242 2°49.662 121.3 12.4 123 13
2011-07-27 15:54:03 51°18.133 2°49.943 116.7 12.1 123 13.2
2011-07-27 15:55:02 51°18.026 2°50.216 117.4 12.2 122 12.9
2011-07-27 15:56:02 51°17.909 2°50.488 118.3 12.5 116 12.2
2011-07-27 15:57:02 51°17.814 2°50.772 114.1 12.4 119 11.4
2011-07-27 15:58:02 51°17.719 2°51.057 114.8 12.3 120 9.7
2011-07-27 15:59:02 51°17.617 2°51.335 115.9 12 118 8.9
2011-07-27 16:00:02 51°17.523 2°51.622 111.7 12.3 114 9.4
2011-07-27 16:01:03 51°17.418 2°51.911 112.9 12.4 119 10.1
2011-07-27 16:02:02 51°17.285 2°52.16 130 12.8 136 10.7
2011-07-27 16:03:02 51°17.119 2°52.37 136.7 12.9 142 9.4
2011-07-27 16:04:02 51°16.958 2°52.583 132.2 12.3 138 9.3
2011-07-27 16:05:02 51°16.783 2°52.772 145.7 13.3 150 9.1
2011-07-27 16:06:02 51°16.583 2°52.908 159.2 13.1 166 11
2011-07-27 16:07:02 51°16.376 2°53.007 157.9 13.3 165 11.4
2011-07-27 16:08:03 51°16.17 2°53.121 150.3 12.8 154 11.5
2011-07-27 16:09:03 51°15.977 2°53.269 147.5 13 151 5.1
2011-07-27 16:10:03 51°15.796 2°53.439 143.6 12.6 149 11.8
2011-07-27 16:11:02 51°15.618 2°53.61 140.9 12.5 145 10.5
2011-07-27 16:12:02 51°15.459 2°53.823 136.2 12.6 143 11.1
2011-07-27 16:13:02 51°15.296 2°54.033 132.9 12.5 140 11.1
2011-07-27 16:14:02 51°15.143 2°54.255 132.3 12.4 135 10.9
2011-07-27 16:15:03 51°14.978 2°54.468 139.1 12.5 144 10.9
2011-07-27 16:16:02 51°14.806 2°54.653 140.8 12.4 147 10.8
2011-07-27 16:17:03 51°14.64 2°54.86 135.8 12.4 141 10.8
2011-07-27 16:18:02 51°14.482 2°55.06 138 12.3 140 10.5
2011-07-27 16:19:03 51°14.321 2°55.238 148.2 10.3 148 9.9
2011-07-27 16:20:02 51°14.196 2°55.357 151.3 8.4 152 10.6
2011-07-27 16:21:03 51°14.068 2°55.456 155.6 8.5 156 10.6
2011-07-27 16:22:04 51°13.953 2°55.539 157 6.9 157 10.6
2011-07-27 16:23:06 51°13.851 2°55.611 156.7 6.5 156 -999
2011-07-27 16:24:06 51°13.76 2°55.711 137.8 6 136 10.7
2011-07-27 16:25:05 51°13.704 2°55.813 128.6 4.7 128 11
2011-07-27 16:26:04 51°13.664 2°55.903 122.7 3.8 121 9.7
2011-07-27 16:27:03 51°13.642 2°55.983 106.5 2.9 106 7.6